Time;durP1;ratioP1;P1;durP2;ratioP2;P2;SDS_P1;SDS_P2;PMS_P1;PMS_P2;Temp;Humidity;BMP_temperature;BMP_pressure;BME280_temperature;BME280_humidity;BME280_pressure;Samples;Min_cycle;Max_cycle;Signal;HPM_P1;HPM_P2
2022/03/13 00:05:42;;;;;;;12.68;7.10;;;7.10;99.90;;;;;;11863758;29;20132;-81
2022/03/13 00:11:43;;;;;;;17.67;6.80;;;6.80;99.90;;;;;;11876126;29;20055;-81
2022/03/13 00:17:45;;;;;;;10.82;6.18;;;6.40;99.90;;;;;;11878468;29;20058;-81
2022/03/13 00:23:49;;;;;;;10.32;5.70;;;6.10;99.90;;;;;;11890768;29;20055;-81
2022/03/13 00:29:50;;;;;;;8.23;4.82;;;6.00;99.90;;;;;;11879962;29;20091;-81
2022/03/13 00:35:52;;;;;;;9.65;4.97;;;6.00;99.90;;;;;;11879416;29;20511;-81
2022/03/13 00:41:54;;;;;;;9.82;5.03;;;6.20;99.90;;;;;;11874465;29;20054;-81
2022/03/13 00:47:57;;;;;;;9.60;5.32;;;6.30;99.90;;;;;;11881693;29;20059;-80
2022/03/13 00:53:59;;;;;;;11.73;5.68;;;6.40;99.90;;;;;;11875929;29;20062;-81
2022/03/13 01:00:01;;;;;;;10.40;5.72;;;6.20;99.90;;;;;;11875558;29;20133;-81
2022/03/13 01:06:05;;;;;;;10.27;5.53;;;6.10;99.90;;;;;;11875713;29;20059;-81
2022/03/13 01:12:07;;;;;;;11.25;5.32;;;5.90;99.90;;;;;;11876572;29;20054;-80
2022/03/13 01:18:10;;;;;;;11.18;5.68;;;5.70;99.90;;;;;;11875660;29;20933;-81
2022/03/13 01:24:14;;;;;;;10.32;5.45;;;5.60;99.90;;;;;;11872678;29;20055;-81
2022/03/13 01:30:16;;;;;;;9.88;5.65;;;5.70;99.90;;;;;;11871242;29;20100;-81
2022/03/13 01:36:18;;;;;;;9.65;5.25;;;5.60;99.90;;;;;;11873634;29;20106;-80
2022/03/13 01:42:20;;;;;;;10.82;5.68;;;5.40;99.90;;;;;;11874916;29;20135;-80
2022/03/13 01:48:22;;;;;;;11.20;5.72;;;5.20;99.90;;;;;;11867999;29;20055;-81
2022/03/13 01:54:24;;;;;;;11.07;6.07;;;5.10;99.90;;;;;;11878157;29;20073;-80
2022/03/13 02:00:27;;;;;;;9.32;5.93;;;5.00;99.90;;;;;;11871720;29;20645;-80
2022/03/13 02:06:29;;;;;;;10.88;5.47;;;5.10;99.90;;;;;;11871012;29;20123;-80
2022/03/13 02:12:31;;;;;;;10.95;5.70;;;4.70;99.90;;;;;;11871196;29;20089;-81
2022/03/13 02:18:33;;;;;;;10.02;5.80;;;4.60;99.90;;;;;;11871904;29;20058;-81
2022/03/13 02:24:35;;;;;;;12.48;5.70;;;4.50;99.90;;;;;;11872211;29;20050;-81
2022/03/13 02:30:37;;;;;;;10.57;6.32;;;4.40;99.90;;;;;;11879340;29;20108;-81
2022/03/13 02:36:38;;;;;;;10.82;5.47;;;4.40;99.90;;;;;;11870210;29;20059;-80
2022/03/13 02:42:40;;;;;;;8.98;5.47;;;4.40;99.90;;;;;;11868286;29;20266;-81
2022/03/13 02:48:42;;;;;;;13.60;5.80;;;4.30;99.90;;;;;;11868407;29;20084;-80
2022/03/13 02:54:44;;;;;;;8.70;5.28;;;4.20;99.90;;;;;;11866456;29;20092;-80
2022/03/13 03:00:50;;;;;;;12.32;5.78;;;4.10;99.90;;;;;;11867715;29;20051;-80
2022/03/13 03:07:01;;;;;;;9.40;5.35;;;3.80;99.90;;;;;;11867958;29;20079;-80
2022/03/13 03:13:04;;;;;;;11.10;5.78;;;3.80;99.90;;;;;;11866340;29;20058;-81
2022/03/13 03:19:06;;;;;;;11.20;5.53;;;3.80;99.90;;;;;;11863034;29;20712;-80
2022/03/13 03:25:08;;;;;;;12.07;5.63;;;3.70;99.90;;;;;;11868446;29;20054;-81
2022/03/13 03:31:10;;;;;;;9.70;5.80;;;3.70;99.90;;;;;;11866024;29;20043;-81
2022/03/13 03:37:12;;;;;;;9.55;5.50;;;3.50;99.90;;;;;;11869123;29;20058;-80
2022/03/13 03:43:15;;;;;;;8.65;5.38;;;3.60;99.90;;;;;;11869499;29;20046;-80
2022/03/13 03:49:17;;;;;;;9.73;5.50;;;3.40;99.90;;;;;;11874506;29;20115;-80
2022/03/13 03:55:19;;;;;;;13.52;5.75;;;3.40;99.90;;;;;;11879334;29;20063;-81
2022/03/13 04:01:22;;;;;;;13.75;6.32;;;3.40;99.90;;;;;;11881561;29;20142;-80
2022/03/13 04:07:24;;;;;;;11.60;5.68;;;3.40;99.90;;;;;;11893021;29;20090;-80
2022/03/13 04:13:27;;;;;;;14.95;6.20;;;3.30;99.90;;;;;;11883046;29;20108;-80
2022/03/13 04:19:29;;;;;;;10.52;5.43;;;3.40;99.90;;;;;;11884342;29;20124;-80
2022/03/13 04:25:31;;;;;;;9.43;5.05;;;3.30;99.90;;;;;;11882308;29;20055;-81
2022/03/13 04:31:35;;;;;;;11.63;6.00;;;3.20;99.90;;;;;;11882162;29;20081;-81
2022/03/13 04:37:37;;;;;;;11.77;6.22;;;3.30;99.90;;;;;;11879291;29;20074;-80
2022/03/13 04:43:39;;;;;;;10.20;5.75;;;3.50;99.90;;;;;;11880980;29;20055;-80
2022/03/13 04:49:45;;;;;;;12.10;6.13;;;3.20;99.90;;;;;;11888219;29;20428;-80
2022/03/13 04:55:49;;;;;;;11.70;5.72;;;3.10;99.90;;;;;;11895066;29;20058;-80
2022/03/13 05:01:52;;;;;;;11.35;5.75;;;3.30;99.90;;;;;;11873959;29;20112;-80
2022/03/13 05:07:54;;;;;;;10.38;5.65;;;3.50;99.90;;;;;;11873051;29;20058;-80
2022/03/13 05:13:56;;;;;;;9.77;5.45;;;3.20;99.90;;;;;;11873957;29;20054;-80
2022/03/13 05:19:59;;;;;;;9.00;5.82;;;3.10;99.90;;;;;;11873147;29;20121;-80
2022/03/13 05:26:02;;;;;;;11.15;5.90;;;2.90;99.90;;;;;;11875481;29;20180;-81
2022/03/13 05:32:05;;;;;;;11.13;5.05;;;2.80;99.90;;;;;;11868474;29;20051;-80
2022/03/13 05:38:07;;;;;;;9.65;5.25;;;2.90;99.90;;;;;;11872286;29;21180;-80
2022/03/13 05:44:09;;;;;;;10.43;5.45;;;3.10;99.90;;;;;;11871274;29;20099;-80
2022/03/13 05:50:15;;;;;;;13.13;5.65;;;2.70;99.90;;;;;;11876494;29;20405;-80
2022/03/13 05:56:17;;;;;;;9.13;5.50;;;2.80;99.90;;;;;;11929615;24;20114;-81
2022/03/13 06:02:20;;;;;;;11.32;5.78;;;2.80;99.90;;;;;;11929481;29;20055;-81
2022/03/13 06:08:22;;;;;;;12.23;5.55;;;2.50;99.90;;;;;;11918140;29;20119;-80
2022/03/13 06:14:25;;;;;;;10.75;5.85;;;2.70;99.90;;;;;;11919156;29;20114;-81
2022/03/13 06:20:29;;;;;;;10.57;6.07;;;2.70;99.90;;;;;;11920065;29;20062;-80
2022/03/13 06:26:31;;;;;;;9.90;5.80;;;2.90;99.90;;;;;;11919674;29;20065;-80
2022/03/13 06:32:34;;;;;;;11.73;5.53;;;2.90;99.90;;;;;;11928270;29;20054;-81
2022/03/13 06:38:36;;;;;;;10.68;5.90;;;2.90;99.90;;;;;;11918433;29;20472;-81
2022/03/13 06:44:38;;;;;;;13.95;5.82;;;2.90;99.90;;;;;;11927774;29;20050;-80
2022/03/13 06:50:40;;;;;;;8.80;5.55;;;3.10;99.90;;;;;;11930315;29;20468;-79
2022/03/13 06:56:43;;;;;;;9.82;5.78;;;3.40;99.90;;;;;;11917983;29;20058;-80
2022/03/13 07:02:45;;;;;;;9.32;5.03;;;3.40;99.90;;;;;;11914766;29;20063;-80
2022/03/13 07:08:47;;;;;;;10.48;6.30;;;3.50;99.90;;;;;;11926166;29;20602;-80
2022/03/13 07:14:49;;;;;;;11.30;6.00;;;3.70;99.90;;;;;;11912861;29;20050;-80
2022/03/13 07:20:51;;;;;;;11.27;5.75;;;3.80;99.90;;;;;;11913376;29;20119;-80
2022/03/13 07:26:53;;;;;;;12.15;6.53;;;3.90;99.90;;;;;;11917013;29;20100;-80
2022/03/13 07:32:58;;;;;;;10.90;6.22;;;4.30;99.90;;;;;;11919436;29;20086;-80
2022/03/13 07:39:01;;;;;;;11.90;5.90;;;4.60;99.90;;;;;;11923426;29;20096;-81
2022/03/13 07:45:03;;;;;;;7.35;4.20;;;4.50;99.90;;;;;;11911722;29;20107;-81
2022/03/13 07:51:07;;;;;;;10.88;3.75;;;5.10;99.90;;;;;;11910983;29;20223;-81
2022/03/13 07:57:09;;;;;;;6.50;4.10;;;6.40;99.90;;;;;;11917621;29;20116;-80
2022/03/13 08:03:11;;;;;;;9.18;4.05;;;6.90;99.90;;;;;;11917994;29;20134;-81
2022/03/13 08:09:13;;;;;;;8.20;4.88;;;7.30;99.90;;;;;;11915170;29;20050;-81
2022/03/13 08:15:15;;;;;;;7.88;4.25;;;7.60;99.90;;;;;;11913663;29;20120;-81
2022/03/13 08:21:17;;;;;;;6.53;4.50;;;7.60;99.90;;;;;;11908390;29;20063;-81
2022/03/13 08:27:25;;;;;;;9.77;5.18;;;7.90;99.90;;;;;;11921929;29;20108;-81
2022/03/13 08:33:27;;;;;;;9.00;4.53;;;8.20;99.90;;;;;;11914776;29;20058;-82
2022/03/13 08:39:28;;;;;;;8.27;4.30;;;8.40;99.90;;;;;;11939137;29;20119;-81
2022/03/13 08:45:30;;;;;;;9.80;4.55;;;8.50;99.90;;;;;;11927298;29;20118;-81
2022/03/13 08:51:32;;;;;;;9.07;3.60;;;8.70;99.90;;;;;;11916557;29;20086;-81
2022/03/13 08:57:35;;;;;;;9.75;4.20;;;9.00;99.90;;;;;;11933785;29;20096;-81
2022/03/13 09:03:37;;;;;;;7.28;4.32;;;9.10;99.90;;;;;;11935882;29;20084;-81
2022/03/13 09:09:39;;;;;;;9.70;4.18;;;9.60;99.90;;;;;;11918654;29;20111;-81
2022/03/13 09:15:41;;;;;;;6.78;3.65;;;10.00;99.90;;;;;;11937516;29;20055;-81
2022/03/13 09:21:44;;;;;;;6.97;4.20;;;10.30;99.70;;;;;;11925460;29;20119;-81
2022/03/13 09:27:46;;;;;;;6.90;4.05;;;10.30;99.50;;;;;;11919216;29;20142;-81
2022/03/13 09:33:48;;;;;;;8.70;3.90;;;10.20;98.60;;;;;;11918192;29;20192;-82
2022/03/13 09:39:51;;;;;;;7.70;4.47;;;10.00;99.20;;;;;;11920428;29;20415;-82
2022/03/13 09:45:52;;;;;;;9.07;4.63;;;10.20;99.60;;;;;;11916810;29;20051;-82
2022/03/13 09:51:54;;;;;;;10.93;4.78;;;10.40;99.90;;;;;;11920990;29;20053;-81
2022/03/13 09:57:56;;;;;;;7.00;4.28;;;10.40;98.50;;;;;;11923813;29;20066;-82
2022/03/13 10:03:59;;;;;;;7.65;4.57;;;10.50;98.90;;;;;;11919041;29;20104;-82
2022/03/13 10:10:12;;;;;;;8.23;4.85;;;10.50;99.90;;;;;;11922792;29;20504;-82
2022/03/13 10:16:22;;;;;;;7.47;4.47;;;10.50;98.90;;;;;;11918479;29;20058;-82
2022/03/13 10:22:30;;;;;;;7.43;4.20;;;10.50;97.90;;;;;;11919909;29;20089;-83
2022/03/13 10:28:34;;;;;;;7.50;4.05;;;10.60;98.90;;;;;;11917411;29;20138;-83
2022/03/13 10:34:38;;;;;;;9.10;4.60;;;10.50;97.50;;;;;;11921981;29;20464;-83
2022/03/13 10:40:40;;;;;;;11.93;4.68;;;10.70;98.60;;;;;;11917113;29;20056;-82
2022/03/13 10:46:42;;;;;;;8.43;4.50;;;10.90;97.30;;;;;;11921267;29;20530;-83
2022/03/13 10:52:47;;;;;;;8.18;4.50;;;11.00;97.30;;;;;;11917541;29;20042;-83
2022/03/13 10:58:49;;;;;;;8.35;4.85;;;11.10;97.00;;;;;;11925978;29;20516;-84
2022/03/13 11:04:55;;;;;;;7.22;4.60;;;11.50;98.20;;;;;;11925301;29;20063;-83
2022/03/13 11:10:58;;;;;;;8.65;4.90;;;11.70;99.20;;;;;;11917607;29;20051;-82
2022/03/13 11:17:00;;;;;;;8.15;4.22;;;11.60;96.70;;;;;;11914517;29;20162;-84
2022/03/13 11:23:01;;;;;;;7.80;4.60;;;11.80;97.40;;;;;;11928224;29;20058;-83
2022/03/13 11:29:06;;;;;;;7.82;4.45;;;12.10;96.90;;;;;;11908384;29;20573;-82
2022/03/13 11:35:08;;;;;;;8.65;4.38;;;12.30;96.40;;;;;;11920858;29;20129;-83
2022/03/13 11:41:12;;;;;;;7.05;4.72;;;12.40;95.60;;;;;;11914897;29;20067;-82
2022/03/13 11:53:44;;;;;;;7.78;5.05;;;13.00;96.20;;;;;;4440192;24;20058;-84
2022/03/13 12:00:11;;;;;;;7.70;5.28;;;13.40;96.60;;;;;;11915901;29;20058;-82
2022/03/13 12:06:47;;;;;;;10.52;5.53;;;13.50;96.20;;;;;;11882305;29;20106;-82
2022/03/13 12:13:03;;;;;;;7.43;4.82;;;13.60;95.10;;;;;;11911110;29;20058;-84
2022/03/13 12:19:05;;;;;;;7.75;4.93;;;13.80;95.20;;;;;;11926344;29;20137;-83
2022/03/13 12:25:08;;;;;;;11.00;5.47;;;13.90;94.70;;;;;;11923428;29;20050;-83
2022/03/13 12:31:10;;;;;;;8.90;5.60;;;14.20;96.40;;;;;;11928614;29;20058;-84
2022/03/13 12:37:12;;;;;;;11.65;6.18;;;14.40;95.90;;;;;;11928771;29;20054;-82
2022/03/13 12:43:14;;;;;;;9.50;5.97;;;14.40;95.00;;;;;;11927156;29;20120;-83
2022/03/13 12:49:17;;;;;;;8.68;6.10;;;14.70;95.40;;;;;;11926523;29;20128;-83
2022/03/13 12:55:20;;;;;;;10.70;6.33;;;14.80;96.30;;;;;;11922618;29;20058;-83
2022/03/13 13:01:22;;;;;;;11.95;6.57;;;15.10;95.90;;;;;;11922222;29;20055;-84
2022/03/13 13:07:38;;;;;;;11.20;6.50;;;15.00;95.10;;;;;;11921903;29;20154;-83
2022/03/13 13:13:40;;;;;;;9.63;6.20;;;14.80;94.50;;;;;;11923620;29;20110;-83
2022/03/13 13:19:45;;;;;;;11.07;6.53;;;14.80;94.50;;;;;;11934619;29;20472;-84
2022/03/13 13:25:54;;;;;;;9.20;6.13;;;14.90;95.20;;;;;;11904059;29;20062;-83
2022/03/13 13:32:17;;;;;;;9.00;5.80;;;14.90;94.20;;;;;;11913885;29;20062;-84
2022/03/13 13:38:31;;;;;;;10.95;5.40;;;14.90;93.70;;;;;;11922402;29;20670;-83
2022/03/13 13:44:33;;;;;;;10.55;6.10;;;14.80;93.90;;;;;;11920194;29;20054;-83
2022/03/13 13:50:35;;;;;;;11.18;7.22;;;14.70;94.10;;;;;;11922563;29;20114;-84
2022/03/13 13:56:47;;;;;;;11.40;7.22;;;14.60;94.10;;;;;;11923928;29;20119;-82
2022/03/13 14:02:50;;;;;;;10.38;6.78;;;14.70;93.90;;;;;;11919486;29;20111;-84
2022/03/13 14:08:52;;;;;;;10.83;7.13;;;14.80;94.30;;;;;;11926361;29;20123;-83
2022/03/13 14:14:54;;;;;;;37.58;23.13;;;14.70;92.40;;;;;;11934541;29;20372;-84
2022/03/13 14:20:56;;;;;;;20.67;12.10;;;14.60;94.20;;;;;;11917195;29;20134;-83
2022/03/13 14:26:57;;;;;;;26.00;18.63;;;14.50;93.70;;;;;;11920706;29;20697;-83
2022/03/13 14:32:59;;;;;;;9.77;6.88;;;14.50;92.50;;;;;;11919607;29;20091;-84
2022/03/13 14:39:02;;;;;;;13.73;8.70;;;14.50;94.50;;;;;;11916061;29;20058;-84
2022/03/13 14:45:04;;;;;;;12.70;6.93;;;14.40;93.10;;;;;;11915650;29;20061;-83
2022/03/13 14:51:07;;;;;;;9.32;6.63;;;14.30;93.60;;;;;;11920473;29;20058;-84
2022/03/13 14:57:09;;;;;;;11.25;6.68;;;14.60;93.20;;;;;;11916934;29;20115;-83
2022/03/13 15:03:11;;;;;;;9.88;5.97;;;14.60;93.70;;;;;;11934381;29;20461;-83
2022/03/13 15:09:13;;;;;;;8.80;6.15;;;14.60;92.50;;;;;;11921033;29;20065;-83
2022/03/13 15:15:16;;;;;;;8.77;5.85;;;14.50;92.40;;;;;;11918902;29;20058;-84
2022/03/13 15:21:18;;;;;;;9.68;6.40;;;14.60;92.70;;;;;;11914989;29;20072;-84
2022/03/13 15:27:20;;;;;;;9.00;6.10;;;14.50;92.20;;;;;;11917237;29;20091;-83
2022/03/13 15:33:22;;;;;;;8.32;6.20;;;14.50;91.40;;;;;;11918762;29;20523;-83
2022/03/13 15:39:27;;;;;;;13.00;6.85;;;14.40;90.40;;;;;;11918784;29;20097;-82
2022/03/13 15:45:29;;;;;;;9.90;5.78;;;14.50;91.40;;;;;;11930840;29;20058;-82
2022/03/13 15:51:31;;;;;;;9.00;5.70;;;14.50;93.30;;;;;;11915468;29;20059;-83
2022/03/13 15:57:33;;;;;;;8.27;5.55;;;14.40;92.80;;;;;;11917367;29;20066;-82
2022/03/13 16:03:35;;;;;;;9.70;6.15;;;14.40;94.60;;;;;;11934891;29;20070;-83
2022/03/13 16:09:37;;;;;;;10.40;6.20;;;14.20;93.90;;;;;;11917972;29;20066;-82
2022/03/13 16:15:38;;;;;;;8.57;5.97;;;14.10;96.30;;;;;;11915779;29;20066;-83
2022/03/13 16:21:42;;;;;;;9.10;6.38;;;13.80;94.80;;;;;;11916996;29;20062;-83
2022/03/13 16:27:44;;;;;;;10.15;6.30;;;13.70;94.10;;;;;;11916220;29;20511;-81
2022/03/13 16:33:46;;;;;;;11.25;6.40;;;13.50;94.70;;;;;;11913663;29;20054;-83
2022/03/13 16:39:51;;;;;;;11.98;6.30;;;13.20;95.70;;;;;;11920453;29;20114;-82
2022/03/13 16:45:53;;;;;;;13.52;7.15;;;13.00;94.90;;;;;;11913435;29;20058;-82
2022/03/13 16:51:55;;;;;;;9.25;6.20;;;12.70;95.90;;;;;;11916478;29;20141;-82
2022/03/13 16:57:57;;;;;;;12.13;6.18;;;12.50;95.20;;;;;;11920012;29;20066;-81
2022/03/13 17:03:59;;;;;;;14.07;7.13;;;12.40;95.80;;;;;;11924458;29;20058;-82
2022/03/13 17:10:01;;;;;;;15.25;6.68;;;12.30;96.40;;;;;;11927386;29;20058;-83
2022/03/13 17:16:03;;;;;;;9.95;5.95;;;12.20;97.90;;;;;;11934834;29;20058;-83
2022/03/13 17:22:05;;;;;;;10.00;5.95;;;12.00;98.70;;;;;;11927030;29;20070;-82
2022/03/13 17:28:10;;;;;;;10.70;6.85;;;11.70;97.40;;;;;;11918015;29;20074;-82
2022/03/13 17:34:13;;;;;;;9.60;6.35;;;11.50;99.50;;;;;;11920808;29;20051;-83
2022/03/13 17:40:15;;;;;;;10.85;6.05;;;11.40;98.90;;;;;;11926158;29;20920;-83
2022/03/13 17:46:17;;;;;;;12.38;6.35;;;11.20;97.50;;;;;;11923286;29;20066;-83
2022/03/13 17:52:19;;;;;;;11.30;6.45;;;11.00;97.90;;;;;;11924515;29;20128;-82
2022/03/13 17:58:23;;;;;;;12.65;6.70;;;10.70;98.90;;;;;;11923752;29;20066;-82
2022/03/13 18:04:25;;;;;;;13.90;7.72;;;10.60;98.60;;;;;;11916771;29;20055;-83
2022/03/13 18:10:27;;;;;;;8.98;6.50;;;10.60;99.00;;;;;;11921492;29;20395;-83
2022/03/13 18:16:29;;;;;;;12.63;7.05;;;10.70;97.90;;;;;;11915990;29;20499;-81
2022/03/13 18:22:31;;;;;;;9.95;6.78;;;10.70;99.50;;;;;;11921286;29;20554;-83
2022/03/13 18:28:33;;;;;;;10.23;6.50;;;10.60;99.40;;;;;;11901494;29;20452;-83
2022/03/13 18:34:35;;;;;;;11.32;6.70;;;10.40;99.10;;;;;;11919383;29;20050;-82
2022/03/13 18:40:37;;;;;;;10.80;7.03;;;10.20;99.30;;;;;;11919628;29;20063;-83
2022/03/13 18:46:39;;;;;;;11.32;6.45;;;10.10;99.90;;;;;;11920767;29;20046;-83
2022/03/13 18:52:41;;;;;;;10.88;6.63;;;9.90;99.90;;;;;;11932252;29;20058;-84
2022/03/13 18:58:44;;;;;;;11.80;6.70;;;9.60;99.90;;;;;;11919226;29;20075;-82
2022/03/13 19:04:46;;;;;;;19.30;13.13;;;9.50;99.90;;;;;;11913787;29;20126;-83
2022/03/13 19:10:48;;;;;;;15.15;6.75;;;9.30;99.90;;;;;;11934296;29;20051;-82
2022/03/13 19:16:51;;;;;;;8.80;6.40;;;9.30;99.90;;;;;;11921246;29;20066;-82
2022/03/13 19:22:53;;;;;;;13.45;6.88;;;9.20;99.90;;;;;;11918853;29;20054;-83
2022/03/13 19:28:55;;;;;;;10.75;6.68;;;9.20;99.90;;;;;;11934893;29;20110;-82
2022/03/13 19:34:57;;;;;;;21.83;13.98;;;9.20;99.90;;;;;;11916238;29;20473;-82
2022/03/13 19:41:00;;;;;;;18.63;11.48;;;9.30;99.90;;;;;;11915416;29;20504;-82
2022/03/13 19:47:02;;;;;;;19.95;11.32;;;9.50;99.10;;;;;;11916523;29;20135;-83
2022/03/13 19:53:05;;;;;;;45.67;22.40;;;9.70;98.40;;;;;;11917024;29;20063;-82
2022/03/13 19:59:08;;;;;;;22.35;13.65;;;9.70;99.50;;;;;;11915389;29;20095;-83
2022/03/13 20:05:29;;;;;;;19.42;10.32;;;9.60;99.40;;;;;;11910880;29;20054;-82
2022/03/13 20:11:31;;;;;;;10.40;6.93;;;9.60;98.60;;;;;;11922381;29;20090;-82
2022/03/13 20:17:34;;;;;;;9.85;5.10;;;9.70;98.00;;;;;;11920192;29;20123;-83
2022/03/13 20:23:36;;;;;;;9.18;5.50;;;9.80;97.40;;;;;;11917319;29;20572;-83
2022/03/13 20:29:38;;;;;;;7.88;5.25;;;10.00;96.90;;;;;;11918096;29;20181;-82
2022/03/13 20:35:40;;;;;;;11.63;5.45;;;10.00;97.20;;;;;;11924763;29;21062;-82
2022/03/13 20:41:43;;;;;;;8.88;5.00;;;10.10;96.60;;;;;;11920538;29;20122;-82
2022/03/13 20:47:44;;;;;;;10.60;4.70;;;10.00;96.60;;;;;;11922810;29;20059;-82
2022/03/13 20:53:46;;;;;;;10.73;5.45;;;10.10;96.00;;;;;;11922979;29;20130;-82
2022/03/13 20:59:48;;;;;;;10.93;5.63;;;10.00;95.80;;;;;;11929599;29;20127;-82
2022/03/13 21:05:51;;;;;;;15.88;7.07;;;10.20;94.60;;;;;;11924703;29;20066;-83
2022/03/13 21:11:54;;;;;;;21.20;9.63;;;10.20;94.70;;;;;;11921875;29;20093;-83
2022/03/13 21:17:56;;;;;;;11.73;6.75;;;10.00;95.10;;;;;;11923418;29;20575;-83
2022/03/13 21:23:58;;;;;;;17.45;10.77;;;10.10;94.60;;;;;;11926140;29;20503;-82
2022/03/13 21:30:00;;;;;;;12.73;4.95;;;9.90;94.90;;;;;;11921478;29;20055;-82
2022/03/13 21:36:03;;;;;;;8.88;5.57;;;9.90;94.80;;;;;;11917239;29;20110;-83
2022/03/13 21:42:05;;;;;;;8.27;5.82;;;9.90;99.90;;;;;;11924481;29;20169;-82
2022/03/13 21:48:07;;;;;;;10.75;5.22;;;9.60;99.70;;;;;;11922127;29;20144;-82
2022/03/13 21:54:09;;;;;;;7.60;4.82;;;9.60;96.00;;;;;;11920241;29;20058;-83
2022/03/13 22:00:11;;;;;;;8.43;4.78;;;9.70;95.50;;;;;;11917711;29;20487;-82
2022/03/13 22:06:13;;;;;;;6.93;4.93;;;9.90;94.60;;;;;;11927298;29;20058;-82
2022/03/13 22:12:23;;;;;;;8.57;5.47;;;10.00;94.50;;;;;;11917612;29;20054;-82
2022/03/13 22:18:25;;;;;;;8.35;5.88;;;9.80;97.40;;;;;;11914523;29;20070;-83
2022/03/13 22:24:27;;;;;;;12.20;6.47;;;9.60;99.90;;;;;;11922025;29;20104;-81
2022/03/13 22:30:29;;;;;;;9.23;5.55;;;9.30;99.90;;;;;;11913049;29;20066;-83
2022/03/13 22:36:31;;;;;;;8.90;5.82;;;9.00;99.90;;;;;;11921112;29;20139;-83
2022/03/13 22:42:33;;;;;;;10.20;5.70;;;8.80;99.90;;;;;;11914227;29;20055;-82
2022/03/13 22:48:35;;;;;;;11.95;6.60;;;8.70;99.90;;;;;;11910928;29;20063;-82
2022/03/13 22:54:37;;;;;;;13.13;6.93;;;8.60;99.90;;;;;;11913069;29;20092;-83
2022/03/13 23:00:39;;;;;;;10.30;6.10;;;8.40;99.90;;;;;;11911291;29;20129;-83
2022/03/13 23:06:41;;;;;;;9.20;6.00;;;8.20;99.90;;;;;;11918561;29;20070;-82
2022/03/13 23:12:43;;;;;;;9.38;6.15;;;8.20;99.90;;;;;;11915195;29;20079;-83
2022/03/13 23:18:45;;;;;;;8.40;5.82;;;8.00;99.90;;;;;;11917186;29;20123;-82
2022/03/13 23:24:47;;;;;;;9.02;5.22;;;8.00;99.90;;;;;;11925503;29;20114;-83
2022/03/13 23:30:51;;;;;;;8.73;5.38;;;7.90;99.90;;;;;;11913833;29;20116;-82
2022/03/13 23:36:55;;;;;;;8.07;5.17;;;7.90;99.90;;;;;;11905739;29;20139;-82
2022/03/13 23:42:57;;;;;;;9.63;5.00;;;7.90;99.90;;;;;;11911827;29;20055;-82
2022/03/13 23:48:58;;;;;;;9.18;5.50;;;8.00;99.60;;;;;;11914513;29;20638;-82
2022/03/13 23:55:00;;;;;;;7.28;5.10;;;8.30;98.80;;;;;;11910200;29;20050;-81
